KMIE/MIE METAR and TAF weather

Enter ICAO airport designator
Station Type Date Time Source
KMIE METAR 2020/01/20 09:53 UTC NOAA

KMIE 200953Z AUTO 29004KT 10SM CLR M11/M14 A3047 RMK AO2 SLP332 T11111139


Station Type Date Time Source
KMIE Decoded METAR 2020/01/20 09:53 UTC NOAA

MUNCIE DELAWARE JOHNSON, IN, United States (KMIE) 40-14N 85-24W 285M
Jan 20, 2020 - 04:53 AM EST / 2020.01.20 0953 UTC
Wind: from the WNW (290 degrees) at 5 MPH (4 KT):0
Visibility: 10 mile(s):0
Sky conditions: clear
Temperature: 12.0 F (-11.1 C)
Windchill: 3 F (-16 C):1
Dew Point: 7.0 F (-13.9 C)
Relative Humidity: 79%
Pressure (altimeter): 30.47 in. Hg (1031 hPa)
ob: KMIE 200953Z AUTO 29004KT 10SM CLR M11/M14 A3047 RMK AO2 SLP332 T11111139
cycle: 10

Station Type Date Time Source
KMIE TAF UTC NOAA

Error!

Example: see airport list